Time;durP1;ratioP1;P1;durP2;ratioP2;P2;SDS_P1;SDS_P2;PMS_P1;PMS_P2;Temp;Humidity;BMP_temperature;BMP_pressure;BME280_temperature;BME280_humidity;BME280_pressure;Samples;Min_cycle;Max_cycle;Signal;HPM_P1;HPM_P2
2021/12/26 00:01:51;;;;;;;1.73;1.63;;;4.30;93.70;3.60;97237.00;;;;5114358;28;20221;-75
2021/12/26 00:04:17;;;;;;;2.00;1.90;;;4.40;93.30;3.60;97240.00;;;;5114188;28;20193;-74
2021/12/26 00:06:45;;;;;;;7.07;1.70;;;4.30;93.10;3.60;97247.00;;;;5114205;28;20298;-73
2021/12/26 00:09:11;;;;;;;1.67;1.57;;;4.30;93.40;3.60;97230.00;;;;5114091;28;20226;-73
2021/12/26 00:11:38;;;;;;;1.67;1.57;;;4.30;92.90;3.60;97225.00;;;;5113980;28;20313;-73
2021/12/26 00:14:05;;;;;;;1.67;1.57;;;4.40;92.30;3.50;97227.00;;;;5114215;28;20217;-74
2021/12/26 00:16:32;;;;;;;1.77;1.67;;;4.30;92.30;3.50;97233.00;;;;5114331;28;20228;-74
2021/12/26 00:19:02;;;;;;;1.47;1.40;;;4.20;92.60;3.50;97232.00;;;;5096264;28;20289;-74
2021/12/26 00:21:28;;;;;;;4.77;3.73;;;4.30;93.10;3.50;97226.00;;;;5113967;28;20236;-76
2021/12/26 00:23:58;;;;;;;2.90;2.70;;;4.30;93.40;3.50;97223.00;;;;5114102;28;20205;-74
2021/12/26 00:26:25;;;;;;;1.60;1.50;;;4.30;93.50;3.60;97233.00;;;;5114007;28;20248;-73
2021/12/26 00:28:52;;;;;;;1.63;1.53;;;4.30;93.40;3.50;97235.00;;;;5096346;28;20708;-74
2021/12/26 00:31:19;;;;;;;1.20;1.20;;;4.30;93.60;3.60;97235.00;;;;5117484;28;20667;-75
2021/12/26 00:33:46;;;;;;;2.53;2.33;;;4.30;93.80;3.60;97229.00;;;;5117567;28;20201;-75
2021/12/26 00:36:14;;;;;;;2.03;1.87;;;4.30;93.80;3.60;97224.00;;;;5099453;28;20236;-75
2021/12/26 00:38:40;;;;;;;2.83;2.03;;;4.40;94.00;3.60;97235.00;;;;5117341;28;20211;-75
2021/12/26 00:41:07;;;;;;;1.80;1.57;;;4.40;93.60;3.50;97228.00;;;;5117558;28;20201;-73
2021/12/26 00:43:34;;;;;;;2.30;2.10;;;4.30;93.20;3.40;97231.00;;;;5117185;28;20193;-73
2021/12/26 00:46:01;;;;;;;1.67;1.57;;;4.30;93.40;3.50;97193.00;;;;5099304;28;20297;-74
2021/12/26 00:48:27;;;;;;;2.07;1.97;;;4.30;93.90;3.40;97231.00;;;;5117021;28;20264;-73
2021/12/26 00:50:54;;;;;;;1.60;1.53;;;4.20;93.50;3.60;97229.00;;;;5117170;28;20198;-73
2021/12/26 00:53:22;;;;;;;1.70;1.60;;;4.30;93.90;3.50;97237.00;;;;5116993;28;20280;-73
2021/12/26 00:55:49;;;;;;;2.17;1.97;;;4.30;93.40;3.50;97224.00;;;;5117181;28;20671;-73
2021/12/26 00:58:16;;;;;;;1.80;1.70;;;4.20;93.10;3.50;97229.00;;;;5117194;28;20584;-73
2021/12/26 01:00:48;;;;;;;2.03;1.90;;;4.20;93.10;3.50;97218.00;;;;5117058;28;20204;-73
2021/12/26 01:03:17;;;;;;;9.83;1.70;;;4.30;93.10;3.50;97228.00;;;;5116861;28;20296;-73
2021/12/26 01:05:48;;;;;;;1.57;1.57;;;4.30;93.50;3.50;97230.00;;;;5116836;28;20213;-73
2021/12/26 01:08:18;;;;;;;1.53;1.43;;;4.30;93.70;3.50;97224.00;;;;5116935;28;20220;-73
2021/12/26 01:10:52;;;;;;;0.87;0.87;;;4.20;93.30;3.60;97215.00;;;;5116802;28;20674;-72
2021/12/26 01:13:25;;;;;;;1.60;1.40;;;4.30;93.40;3.50;97229.00;;;;5116757;28;20210;-73
2021/12/26 01:15:58;;;;;;;2.57;1.80;;;4.30;92.70;3.50;97222.00;;;;5116666;28;20227;-73
2021/12/26 01:18:30;;;;;;;1.77;1.67;;;4.30;92.70;3.40;97223.00;;;;5116745;28;20198;-73
2021/12/26 01:21:03;;;;;;;1.63;1.53;;;4.20;92.40;3.40;97222.00;;;;5116609;28;20205;-73
2021/12/26 01:23:31;;;;;;;2.23;2.03;;;4.20;92.60;3.40;97224.00;;;;5116548;28;20214;-73
2021/12/26 01:25:59;;;;;;;1.83;1.73;;;4.20;92.70;3.40;97227.00;;;;5116587;28;20193;-73
2021/12/26 01:28:28;;;;;;;1.67;1.57;;;4.20;92.80;3.40;97229.00;;;;5116368;28;20575;-74
2021/12/26 01:30:56;;;;;;;4.33;1.53;;;4.10;93.10;3.30;97226.00;;;;5116403;28;20293;-73
2021/12/26 01:33:23;;;;;;;1.23;1.23;;;4.20;93.00;3.40;97230.00;;;;5098419;28;20261;-74
2021/12/26 01:35:50;;;;;;;3.13;2.70;;;4.20;93.00;3.40;97229.00;;;;5116606;28;20204;-74
2021/12/26 01:38:18;;;;;;;2.03;1.83;;;4.10;93.00;3.30;97229.00;;;;5116464;28;20201;-74
2021/12/26 01:40:50;;;;;;;3.43;2.40;;;4.10;93.10;3.40;97227.00;;;;5115401;28;20277;-74
2021/12/26 01:43:20;;;;;;;1.07;1.07;;;4.10;93.50;3.40;97233.00;;;;5116449;28;20209;-74
2021/12/26 01:45:48;;;;;;;1.93;1.83;;;4.10;93.50;3.40;97229.00;;;;5116207;28;20247;-73
2021/12/26 01:48:15;;;;;;;0.77;0.77;;;4.10;93.20;3.40;97228.00;;;;5098134;28;20222;-75
2021/12/26 01:50:44;;;;;;;1.13;1.13;;;4.20;93.40;3.30;97233.00;;;;5115992;28;20586;-74
2021/12/26 01:53:13;;;;;;;1.97;1.87;;;4.10;93.30;3.40;97232.00;;;;5116253;28;20229;-74
2021/12/26 01:55:45;;;;;;;0.93;0.93;;;4.20;93.50;3.40;97235.00;;;;5097998;28;20290;-74
2021/12/26 01:58:15;;;;;;;1.13;1.13;;;4.20;93.00;3.40;97237.00;;;;5116041;28;20206;-73
2021/12/26 02:00:46;;;;;;;1.13;1.13;;;4.20;92.90;3.50;97231.00;;;;5115897;28;20190;-73
2021/12/26 02:03:16;;;;;;;1.23;1.23;;;4.20;93.10;3.40;97237.00;;;;5116095;28;20277;-74
2021/12/26 02:05:45;;;;;;;1.27;1.17;;;4.20;92.80;3.40;97239.00;;;;5115924;28;20202;-74
2021/12/26 02:08:12;;;;;;;2.10;1.67;;;4.20;92.40;3.40;97238.00;;;;5115627;28;20315;-73
2021/12/26 02:10:39;;;;;;;1.73;1.63;;;4.20;92.50;3.40;97235.00;;;;5115929;28;20280;-73
2021/12/26 02:13:06;;;;;;;2.00;1.90;;;4.20;92.50;3.40;97234.00;;;;5115726;28;20656;-73
2021/12/26 02:15:33;;;;;;;1.60;1.27;;;4.10;92.70;3.40;97230.00;;;;5115729;28;20621;-73
2021/12/26 02:18:01;;;;;;;4.10;2.00;;;4.10;92.80;3.30;97234.00;;;;5115661;28;20218;-73
2021/12/26 02:20:33;;;;;;;1.67;1.57;;;4.10;92.80;3.20;97221.00;;;;5115645;28;20645;-73
2021/12/26 02:23:06;;;;;;;1.77;1.67;;;4.10;92.60;3.30;97231.00;;;;5115631;28;20543;-74
2021/12/26 02:28:17;;;;;;;3.50;3.23;;;4.10;93.20;3.30;97232.00;;;;5115395;28;20250;-74
2021/12/26 02:30:45;;;;;;;2.53;2.43;;;4.10;93.30;3.20;97235.00;;;;5115498;28;20190;-74
2021/12/26 02:33:12;;;;;;;2.10;1.43;;;4.10;93.50;3.30;97233.00;;;;5097585;28;20220;-74
2021/12/26 02:35:40;;;;;;;2.50;1.90;;;4.10;93.60;3.30;97231.00;;;;5115451;28;20242;-74
2021/12/26 02:38:08;;;;;;;1.83;1.73;;;4.10;93.60;3.30;97222.00;;;;5115584;28;20190;-74
2021/12/26 02:40:35;;;;;;;1.30;1.30;;;4.10;94.60;3.20;97223.00;;;;5115489;28;20226;-74
2021/12/26 02:43:03;;;;;;;1.73;1.63;;;4.00;93.40;3.20;97224.00;;;;5115383;28;20198;-73
2021/12/26 02:45:31;;;;;;;2.10;1.90;;;4.10;93.80;3.20;97233.00;;;;5115335;28;20201;-73
2021/12/26 02:47:58;;;;;;;1.67;1.10;;;4.10;93.80;3.20;97229.00;;;;5115322;28;20198;-74
2021/12/26 02:50:31;;;;;;;1.63;1.43;;;4.00;93.90;3.30;97231.00;;;;5115317;28;20347;-74
2021/12/26 02:53:01;;;;;;;1.30;1.30;;;4.10;94.40;3.30;97224.00;;;;5115018;28;20194;-74
2021/12/26 02:55:30;;;;;;;1.40;1.30;;;4.10;94.20;3.30;97231.00;;;;5115184;28;20198;-74
2021/12/26 02:58:03;;;;;;;1.83;1.73;;;4.10;93.90;3.40;97227.00;;;;5097266;28;20241;-73
2021/12/26 03:00:42;;;;;;;2.30;2.10;;;4.10;93.90;3.30;97228.00;;;;5115161;28;20209;-74
2021/12/26 03:03:09;;;;;;;1.83;1.73;;;4.10;93.70;3.40;97227.00;;;;5114994;28;20575;-73
2021/12/26 03:05:40;;;;;;;1.47;1.43;;;4.10;93.70;3.30;97227.00;;;;5115152;28;20198;-73
2021/12/26 03:08:12;;;;;;;1.57;1.47;;;4.10;93.50;3.40;97220.00;;;;5097023;28;20257;-74
2021/12/26 03:10:40;;;;;;;1.80;1.70;;;4.10;93.60;3.30;97217.00;;;;5115078;28;20198;-74
2021/12/26 03:13:10;;;;;;;2.73;2.53;;;4.10;93.40;3.30;97226.00;;;;5115081;28;20212;-73
2021/12/26 03:15:40;;;;;;;1.43;1.33;;;4.10;93.50;3.20;97211.00;;;;5114922;28;20204;-74
2021/12/26 03:18:09;;;;;;;2.30;1.33;;;4.10;93.20;3.10;97224.00;;;;5115050;28;20192;-73
2021/12/26 03:20:41;;;;;;;1.70;1.60;;;4.00;93.30;3.00;97229.00;;;;5096844;28;20243;-73
2021/12/26 03:23:13;;;;;;;3.20;2.90;;;3.90;94.20;3.00;97226.00;;;;5096927;28;20210;-74
2021/12/26 03:25:40;;;;;;;1.60;1.50;;;3.90;93.80;3.10;97226.00;;;;5114774;28;20249;-74
2021/12/26 03:28:08;;;;;;;1.67;1.57;;;3.90;94.60;3.10;97236.00;;;;5114736;28;20284;-74
2021/12/26 03:30:37;;;;;;;1.27;1.27;;;4.00;94.40;3.20;97242.00;;;;5096917;28;20232;-74
2021/12/26 03:33:09;;;;;;;4.20;2.53;;;4.00;94.30;3.20;97240.00;;;;5114868;28;20217;-74
2021/12/26 03:35:40;;;;;;;0.93;0.93;;;4.00;94.00;3.20;97233.00;;;;5114605;28;20647;-74
2021/12/26 03:38:10;;;;;;;1.63;1.53;;;4.00;94.10;3.00;97243.00;;;;5114533;28;20238;-74
2021/12/26 03:40:38;;;;;;;2.03;1.93;;;3.90;93.70;3.10;97238.00;;;;5096745;28;20221;-74
2021/12/26 03:43:05;;;;;;;2.53;1.97;;;3.90;94.10;3.00;97240.00;;;;5096592;28;20232;-74
2021/12/26 03:45:32;;;;;;;1.77;1.57;;;3.90;94.20;3.20;97210.00;;;;5097002;28;20529;-74
2021/12/26 03:47:59;;;;;;;2.10;2.00;;;4.00;94.70;3.20;97242.00;;;;5096526;28;20309;-73
2021/12/26 03:50:28;;;;;;;1.23;1.23;;;4.00;94.70;3.30;97239.00;;;;5114545;28;20285;-74
2021/12/26 03:52:57;;;;;;;2.53;2.33;;;4.00;94.70;3.20;97193.00;;;;5096391;28;20625;-73
2021/12/26 03:55:26;;;;;;;2.60;2.50;;;4.00;94.30;3.30;97237.00;;;;5114502;28;20204;-73
2021/12/26 03:57:54;;;;;;;4.37;3.33;;;4.10;94.60;3.30;97235.00;;;;5114434;28;20198;-73
2021/12/26 04:00:23;;;;;;;2.07;1.93;;;4.10;94.60;3.40;97236.00;;;;5114290;28;20193;-74
2021/12/26 04:02:51;;;;;;;1.07;1.07;;;4.10;94.60;3.30;97235.00;;;;5096375;28;20588;-73
2021/12/26 04:05:17;;;;;;;3.30;3.07;;;4.10;94.40;3.30;97231.00;;;;5116670;28;20228;-74
2021/12/26 04:07:44;;;;;;;1.97;1.87;;;4.10;94.30;3.40;97210.00;;;;5117967;28;20197;-74
2021/12/26 04:10:13;;;;;;;1.57;1.47;;;4.20;94.40;3.40;97233.00;;;;5117755;28;20230;-74
2021/12/26 04:12:46;;;;;;;1.30;1.30;;;4.20;93.70;3.40;97230.00;;;;5117797;28;20190;-74
2021/12/26 04:15:20;;;;;;;2.03;1.93;;;4.20;93.60;3.40;97223.00;;;;5117781;28;20283;-73
2021/12/26 04:17:48;;;;;;;3.60;2.10;;;4.20;93.70;3.40;97227.00;;;;5117872;28;20201;-74
2021/12/26 04:20:16;;;;;;;3.13;2.93;;;4.20;94.40;3.40;97226.00;;;;5117868;28;20205;-74
2021/12/26 04:22:45;;;;;;;2.77;2.57;;;4.10;93.70;3.40;97224.00;;;;5117712;28;20197;-74
2021/12/26 04:25:12;;;;;;;2.13;1.83;;;4.10;93.70;3.30;97222.00;;;;5117658;28;20197;-74
2021/12/26 04:27:39;;;;;;;1.30;1.30;;;4.10;94.40;3.20;97228.00;;;;5117558;28;20233;-74
2021/12/26 04:30:12;;;;;;;2.80;2.50;;;4.10;93.80;3.30;97233.00;;;;5117413;28;20541;-74
2021/12/26 04:32:39;;;;;;;2.40;2.17;;;4.10;93.90;3.20;97228.00;;;;5117473;28;20225;-74
2021/12/26 04:35:08;;;;;;;2.27;2.17;;;4.10;94.80;3.30;97232.00;;;;5117502;28;20288;-74
2021/12/26 04:37:34;;;;;;;2.67;2.10;;;4.10;94.30;3.20;97226.00;;;;5117347;28;20271;-73
2021/12/26 04:40:01;;;;;;;3.00;2.67;;;4.10;94.40;3.00;97220.00;;;;5117432;28;20213;-73
2021/12/26 04:42:28;;;;;;;2.87;2.43;;;4.00;93.90;3.10;97219.00;;;;5117306;28;20194;-73
2021/12/26 04:44:54;;;;;;;2.27;2.17;;;4.00;94.30;3.20;97231.00;;;;5099211;28;20225;-74
2021/12/26 04:47:22;;;;;;;3.13;2.13;;;4.00;94.60;3.20;97232.00;;;;5117351;28;20190;-74
2021/12/26 04:49:48;;;;;;;2.03;1.83;;;4.00;94.60;3.20;97231.00;;;;5117054;28;20226;-74
2021/12/26 04:52:15;;;;;;;3.43;3.23;;;4.00;94.70;3.10;97230.00;;;;5117327;28;20213;-73
2021/12/26 04:54:44;;;;;;;2.00;1.90;;;4.00;94.60;3.20;97228.00;;;;5117014;28;20548;-73
2021/12/26 04:57:10;;;;;;;2.07;1.70;;;4.00;94.80;3.20;97234.00;;;;5117031;28;20235;-73
2021/12/26 04:59:37;;;;;;;1.97;1.87;;;4.00;94.90;3.10;97226.00;;;;5099352;28;20218;-74
2021/12/26 05:02:07;;;;;;;4.17;2.60;;;4.00;94.80;3.20;97233.00;;;;5099382;28;20633;-74
2021/12/26 05:04:35;;;;;;;1.67;1.57;;;4.00;94.80;3.20;97235.00;;;;5117169;28;20258;-73
2021/12/26 05:07:01;;;;;;;3.30;3.10;;;4.00;94.80;3.10;97237.00;;;;5116866;28;20214;-73
2021/12/26 05:09:30;;;;;;;2.50;2.30;;;4.00;94.80;3.10;97232.00;;;;5116789;28;20222;-73
2021/12/26 05:11:58;;;;;;;2.13;2.03;;;4.10;95.60;3.20;97239.00;;;;5116858;28;20312;-73
2021/12/26 05:14:24;;;;;;;3.27;1.33;;;4.00;94.90;3.20;97236.00;;;;5098787;28;20197;-73
2021/12/26 05:16:51;;;;;;;2.87;2.60;;;4.00;95.00;3.20;97231.00;;;;5116637;28;20285;-73
2021/12/26 05:19:18;;;;;;;2.93;2.73;;;4.00;95.00;3.20;97235.00;;;;5116747;28;20210;-74
2021/12/26 05:21:45;;;;;;;2.40;2.20;;;4.00;95.20;3.20;97233.00;;;;5116536;28;20200;-73
2021/12/26 05:24:12;;;;;;;2.60;1.70;;;4.00;95.10;3.20;97228.00;;;;5116490;28;20249;-73
2021/12/26 05:26:40;;;;;;;2.13;1.97;;;4.00;95.00;3.20;97219.00;;;;5116551;28;20193;-73
2021/12/26 05:29:07;;;;;;;1.97;1.87;;;4.00;94.80;3.20;97229.00;;;;5116409;28;20285;-73
2021/12/26 05:31:36;;;;;;;1.47;1.47;;;4.00;94.80;3.10;97227.00;;;;5116668;28;20202;-73
2021/12/26 05:34:02;;;;;;;1.10;1.10;;;4.00;94.80;3.10;97221.00;;;;5116500;28;20934;-73
2021/12/26 05:36:29;;;;;;;2.63;2.27;;;4.00;95.20;3.20;97226.00;;;;5116695;28;20596;-73
2021/12/26 05:38:58;;;;;;;2.40;2.20;;;4.00;96.00;3.20;97219.00;;;;5098511;28;20529;-73
2021/12/26 05:41:25;;;;;;;1.97;1.87;;;4.10;95.10;3.30;97227.00;;;;5098532;28;20198;-73
2021/12/26 05:43:51;;;;;;;0.93;0.93;;;4.10;95.20;3.20;97226.00;;;;5116466;28;20204;-73
2021/12/26 05:46:18;;;;;;;1.87;1.77;;;4.10;94.80;3.20;97226.00;;;;5116284;28;20259;-75
2021/12/26 05:48:44;;;;;;;1.60;1.50;;;4.00;94.80;3.10;97226.00;;;;5116250;28;20298;-74
2021/12/26 05:51:11;;;;;;;4.67;2.67;;;4.00;94.80;3.20;97226.00;;;;5116119;28;20214;-73
2021/12/26 05:53:40;;;;;;;2.90;2.63;;;4.00;95.60;3.10;97226.00;;;;5116377;28;20554;-73
2021/12/26 05:56:10;;;;;;;4.37;2.40;;;3.90;94.80;3.00;97226.00;;;;5116086;28;20538;-72
2021/12/26 05:58:39;;;;;;;3.10;2.90;;;3.90;95.00;3.00;97227.00;;;;5116364;28;20201;-73
2021/12/26 06:01:08;;;;;;;1.37;1.37;;;3.90;95.40;3.00;97226.00;;;;5116091;28;20211;-73
2021/12/26 06:03:35;;;;;;;2.27;2.17;;;3.90;95.50;3.10;97222.00;;;;5115970;28;20222;-73
2021/12/26 06:06:02;;;;;;;1.70;1.60;;;3.90;95.60;3.10;97223.00;;;;5115991;28;20258;-71
2021/12/26 06:08:28;;;;;;;2.23;2.13;;;4.00;95.70;3.10;97225.00;;;;5115716;28;20297;-74
2021/12/26 06:10:55;;;;;;;2.03;1.93;;;3.90;95.40;3.10;97235.00;;;;5098096;28;20528;-73
2021/12/26 06:13:24;;;;;;;1.37;1.37;;;3.90;95.60;3.20;97225.00;;;;5115873;28;20249;-73
2021/12/26 06:15:51;;;;;;;3.50;2.90;;;4.00;95.90;3.30;97226.00;;;;5115919;28;20233;-73
2021/12/26 06:18:18;;;;;;;4.00;1.97;;;4.00;95.80;3.20;97216.00;;;;5115863;28;20280;-73
2021/12/26 06:20:46;;;;;;;1.90;1.80;;;4.10;95.60;3.30;97224.00;;;;5115852;28;20201;-73
2021/12/26 06:23:13;;;;;;;2.93;2.37;;;4.10;95.60;3.30;97220.00;;;;5115914;28;20238;-73
2021/12/26 06:25:40;;;;;;;1.73;1.63;;;4.10;95.60;3.30;97225.00;;;;5115674;28;20338;-73
2021/12/26 06:28:07;;;;;;;6.93;2.60;;;4.10;95.50;3.40;97223.00;;;;5115085;28;20233;-73
2021/12/26 06:30:35;;;;;;;2.83;2.63;;;4.10;95.50;3.40;97216.00;;;;5115460;28;20304;-73
2021/12/26 06:33:02;;;;;;;2.10;2.00;;;4.20;95.40;3.40;97224.00;;;;5115523;28;20226;-73
2021/12/26 06:35:29;;;;;;;11.23;2.47;;;4.20;95.20;3.40;97230.00;;;;5115595;28;20203;-73
2021/12/26 06:37:56;;;;;;;1.93;1.83;;;4.20;95.60;3.40;97239.00;;;;5097610;28;20691;-74
2021/12/26 06:40:24;;;;;;;1.60;1.50;;;4.20;94.70;3.30;97228.00;;;;5115517;28;20235;-73
2021/12/26 06:42:52;;;;;;;1.77;1.67;;;4.10;94.80;3.20;97231.00;;;;5097566;28;20208;-74
2021/12/26 06:45:18;;;;;;;1.80;1.70;;;4.10;95.10;3.40;97229.00;;;;5115455;28;20190;-74
2021/12/26 06:47:51;;;;;;;2.37;1.67;;;4.20;95.10;3.40;97241.00;;;;5115237;28;20213;-74
2021/12/26 06:50:19;;;;;;;2.63;2.43;;;4.20;95.00;3.30;97235.00;;;;5115330;28;20795;-73
2021/12/26 06:52:46;;;;;;;1.97;1.87;;;4.10;95.10;3.30;97236.00;;;;5115336;28;20249;-73
2021/12/26 06:55:13;;;;;;;2.20;2.07;;;4.10;95.20;3.30;97241.00;;;;5115448;28;20216;-73
2021/12/26 06:57:40;;;;;;;3.30;2.93;;;4.10;95.40;3.30;97243.00;;;;5115737;28;20216;-74
2021/12/26 07:00:14;;;;;;;1.23;1.23;;;4.10;95.50;3.30;97234.00;;;;5115619;28;20194;-74
2021/12/26 07:02:41;;;;;;;2.37;2.17;;;4.10;95.80;3.40;97247.00;;;;5097244;28;20285;-73
2021/12/26 07:05:11;;;;;;;2.03;1.93;;;4.20;96.00;3.40;97243.00;;;;5115191;28;20253;-73
2021/12/26 07:07:37;;;;;;;3.80;3.23;;;4.20;95.90;3.40;97244.00;;;;5114995;28;20250;-74
2021/12/26 07:10:05;;;;;;;2.73;2.50;;;4.20;96.00;3.50;97247.00;;;;5114930;28;20226;-73
2021/12/26 07:12:32;;;;;;;2.17;2.07;;;4.30;96.20;3.50;97246.00;;;;5114989;28;20262;-72
2021/12/26 07:15:01;;;;;;;2.97;2.77;;;4.20;95.90;3.40;97245.00;;;;5114877;28;20257;-73
2021/12/26 07:17:27;;;;;;;2.07;1.87;;;4.20;95.80;3.40;97240.00;;;;5115005;28;20202;-73
2021/12/26 07:19:54;;;;;;;2.97;2.63;;;4.20;95.80;3.40;97247.00;;;;5114984;28;20289;-73
2021/12/26 07:22:21;;;;;;;2.73;2.50;;;4.20;95.80;3.40;97244.00;;;;5114640;28;20214;-73
2021/12/26 07:24:48;;;;;;;3.70;2.83;;;4.30;96.00;3.40;97248.00;;;;5114918;28;20204;-73
2021/12/26 07:27:17;;;;;;;2.03;1.93;;;4.20;95.70;3.50;97253.00;;;;5114653;28;20222;-73
2021/12/26 07:29:46;;;;;;;2.37;2.27;;;4.20;95.70;3.40;97256.00;;;;5114703;28;20210;-73
2021/12/26 07:32:13;;;;;;;2.97;2.73;;;4.30;95.60;3.40;97255.00;;;;5114555;28;20731;-73
2021/12/26 07:34:40;;;;;;;3.77;3.03;;;4.20;95.50;3.40;97257.00;;;;5114632;28;20281;-74
2021/12/26 07:37:08;;;;;;;2.37;2.17;;;4.30;95.80;3.40;97260.00;;;;5096672;28;20198;-73
2021/12/26 07:39:38;;;;;;;3.10;2.43;;;4.20;95.70;3.40;97256.00;;;;5113509;28;20201;-73
2021/12/26 07:42:06;;;;;;;1.90;1.80;;;4.30;96.00;3.40;97264.00;;;;5114574;28;20200;-74
2021/12/26 07:44:33;;;;;;;4.73;2.57;;;4.30;95.90;3.40;97269.00;;;;5114628;28;20255;-74
2021/12/26 07:46:59;;;;;;;3.80;2.60;;;4.20;95.80;3.40;97268.00;;;;5114540;28;20204;-73
2021/12/26 07:49:27;;;;;;;2.37;2.17;;;4.20;95.90;3.50;97271.00;;;;5114386;28;20218;-73
2021/12/26 07:51:56;;;;;;;1.57;1.47;;;4.30;96.30;3.40;97266.00;;;;5114526;28;20198;-74
2021/12/26 07:54:23;;;;;;;2.23;2.03;;;4.30;96.20;3.50;97265.00;;;;5096490;28;20230;-73
2021/12/26 07:56:52;;;;;;;6.50;1.77;;;4.30;96.20;3.50;97264.00;;;;5114436;28;20201;-73
2021/12/26 07:59:21;;;;;;;1.80;1.70;;;4.30;96.20;3.50;97277.00;;;;5114295;28;20194;-73
2021/12/26 08:01:48;;;;;;;3.03;1.83;;;4.30;96.30;3.50;97273.00;;;;5114305;28;20194;-73
2021/12/26 08:04:15;;;;;;;2.27;2.13;;;4.30;96.20;3.50;97275.00;;;;5114293;28;20186;-72
2021/12/26 08:06:41;;;;;;;1.60;1.53;;;4.30;96.10;3.50;97270.00;;;;5114390;28;20218;-73
2021/12/26 08:09:09;;;;;;;1.70;1.60;;;4.30;96.20;3.50;97275.00;;;;5114337;28;20214;-73
2021/12/26 08:11:35;;;;;;;2.30;1.63;;;4.30;96.20;3.60;97283.00;;;;5114184;28;20560;-72
2021/12/26 08:14:03;;;;;;;3.37;1.17;;;4.30;96.40;3.60;97285.00;;;;5096238;28;20290;-73
2021/12/26 08:16:30;;;;;;;2.73;2.53;;;4.40;96.30;3.60;97282.00;;;;5114148;28;20211;-73
2021/12/26 08:18:59;;;;;;;2.33;2.13;;;4.40;96.20;3.50;97289.00;;;;5114178;28;20194;-74
2021/12/26 08:21:25;;;;;;;2.87;1.67;;;4.40;96.10;3.50;97278.00;;;;5114066;28;20198;-73
2021/12/26 08:23:54;;;;;;;3.50;2.60;;;4.40;96.20;3.50;97278.00;;;;5095955;28;20225;-73
2021/12/26 08:26:21;;;;;;;2.57;2.30;;;4.40;96.10;3.50;97274.00;;;;5113940;28;20197;-73
2021/12/26 08:28:47;;;;;;;1.27;1.27;;;4.40;96.10;3.50;97270.00;;;;5095794;28;20670;-73
2021/12/26 08:31:16;;;;;;;2.00;1.90;;;4.40;96.20;3.50;97274.00;;;;5114030;28;20262;-73
2021/12/26 08:33:43;;;;;;;2.60;1.63;;;4.40;96.30;3.50;97273.00;;;;5113901;28;20225;-73
2021/12/26 08:36:09;;;;;;;2.53;2.30;;;4.40;96.30;3.60;97281.00;;;;5113825;28;20266;-73
2021/12/26 08:38:39;;;;;;;4.30;2.93;;;4.40;96.40;3.60;97277.00;;;;5113690;28;20637;-73
2021/12/26 08:41:07;;;;;;;1.77;1.67;;;4.50;96.50;3.70;97273.00;;;;5113743;28;20297;-73
2021/12/26 08:43:35;;;;;;;1.97;1.87;;;4.50;96.40;3.70;97262.00;;;;5113756;28;20201;-73
2021/12/26 08:46:03;;;;;;;1.70;1.63;;;4.50;96.30;3.80;97270.00;;;;5113612;28;20222;-73
2021/12/26 08:48:30;;;;;;;2.50;2.30;;;4.60;96.20;3.80;97274.00;;;;5113562;28;20216;-73
2021/12/26 08:50:57;;;;;;;4.83;2.77;;;4.60;96.10;3.90;97276.00;;;;5115558;28;20358;-73
2021/12/26 08:53:26;;;;;;;2.47;2.30;;;4.60;96.10;3.90;97280.00;;;;5117176;28;20644;-73
2021/12/26 08:55:57;;;;;;;2.73;1.80;;;4.60;95.80;3.90;97269.00;;;;5117099;28;20221;-74
2021/12/26 08:58:24;;;;;;;1.80;1.70;;;4.70;96.00;4.00;97272.00;;;;5117117;28;20225;-73
2021/12/26 09:00:55;;;;;;;14.63;2.53;;;4.70;95.90;4.10;97273.00;;;;5117055;28;20198;-73
2021/12/26 09:03:21;;;;;;;2.43;2.33;;;4.80;95.90;4.20;97276.00;;;;5117078;28;20198;-73
2021/12/26 09:05:48;;;;;;;2.20;1.03;;;4.80;95.70;4.20;97276.00;;;;5116970;28;20194;-73
2021/12/26 09:08:15;;;;;;;1.33;1.23;;;4.90;99.90;4.20;97273.00;;;;5116856;28;20236;-73
2021/12/26 09:10:44;;;;;;;2.30;2.17;;;4.90;96.30;4.20;97276.00;;;;5116870;28;20736;-73
2021/12/26 09:13:10;;;;;;;2.97;2.07;;;5.00;95.50;4.20;97285.00;;;;5116862;28;20246;-73
2021/12/26 09:15:39;;;;;;;1.97;1.83;;;5.00;95.40;4.30;97286.00;;;;5116732;28;20605;-74
2021/12/26 09:18:06;;;;;;;2.30;2.10;;;5.10;95.70;4.40;97296.00;;;;5116621;28;20209;-73
2021/12/26 09:20:33;;;;;;;2.30;2.10;;;5.10;96.30;4.40;97282.00;;;;5116617;28;20281;-73
2021/12/26 09:23:00;;;;;;;2.20;1.77;;;5.10;95.40;4.40;97289.00;;;;5116704;28;20633;-75
2021/12/26 09:25:27;;;;;;;2.50;2.30;;;5.20;95.30;4.50;97294.00;;;;5116630;28;20237;-74
2021/12/26 09:27:56;;;;;;;3.10;2.90;;;5.20;95.30;4.50;97301.00;;;;5116595;28;20194;-74
2021/12/26 09:30:23;;;;;;;3.33;3.07;;;5.30;95.40;4.60;97299.00;;;;5116386;28;20233;-74
2021/12/26 09:32:50;;;;;;;1.63;1.57;;;5.30;95.40;4.60;97299.00;;;;5098471;28;20212;-74
2021/12/26 09:35:17;;;;;;;2.23;2.03;;;5.40;95.20;4.60;97293.00;;;;5098506;28;20225;-74
2021/12/26 09:37:44;;;;;;;2.27;1.93;;;5.40;95.20;4.70;97293.00;;;;5116529;28;20202;-74
2021/12/26 09:40:16;;;;;;;2.57;2.37;;;5.40;95.40;4.70;97296.00;;;;5116336;28;20267;-74
2021/12/26 09:42:45;;;;;;;2.40;2.30;;;5.40;95.20;4.70;97294.00;;;;5116330;28;20233;-73
2021/12/26 09:45:12;;;;;;;2.00;1.90;;;5.50;96.10;4.80;97287.00;;;;5098385;28;20209;-74
2021/12/26 09:47:41;;;;;;;4.37;2.60;;;5.60;95.40;5.00;97288.00;;;;5116160;28;20237;-74
2021/12/26 09:50:13;;;;;;;2.97;2.70;;;5.70;95.40;5.00;97287.00;;;;5116162;28;20230;-74
2021/12/26 09:52:43;;;;;;;5.07;2.27;;;5.70;95.20;5.10;97282.00;;;;5116068;28;20304;-74
2021/12/26 09:55:10;;;;;;;3.23;2.37;;;5.80;95.30;5.10;97277.00;;;;5116114;28;20190;-74
2021/12/26 09:57:37;;;;;;;2.30;2.20;;;5.90;95.50;5.30;97283.00;;;;5116101;28;20188;-74
2021/12/26 10:00:22;;;;;;;3.10;2.90;;;6.00;95.30;5.50;97282.00;;;;5116074;28;20252;-74
2021/12/26 10:03:20;;;;;;;1.40;1.33;;;6.10;95.30;5.70;97275.00;;;;5114952;28;20204;-74
2021/12/26 10:06:06;;;;;;;5.27;2.37;;;6.30;95.10;5.90;97270.00;;;;5116184;28;20194;-74
2021/12/26 10:08:48;;;;;;;2.23;2.13;;;6.50;95.00;6.10;97268.00;;;;5115804;28;20202;-74
2021/12/26 10:11:18;;;;;;;2.03;1.93;;;6.60;94.70;6.20;97263.00;;;;5115844;28;20240;-74
2021/12/26 10:13:49;;;;;;;1.57;1.47;;;6.80;93.70;6.20;97265.00;;;;5115761;28;20283;-74
2021/12/26 10:16:20;;;;;;;2.00;1.90;;;6.90;92.70;6.40;97264.00;;;;5115836;28;20674;-74
2021/12/26 10:18:49;;;;;;;2.13;2.03;;;6.90;92.80;6.40;97264.00;;;;5115851;28;20227;-74
2021/12/26 10:21:43;;;;;;;1.40;1.30;;;7.00;91.50;6.30;97253.00;;;;5115809;28;20542;-72
2021/12/26 10:24:16;;;;;;;4.23;2.03;;;7.00;91.60;6.40;97248.00;;;;5096427;28;20252;-75
2021/12/26 10:26:46;;;;;;;1.70;1.60;;;7.00;91.80;6.50;97254.00;;;;5115495;28;20224;-75
2021/12/26 10:29:25;;;;;;;2.13;1.80;;;7.10;91.80;6.50;97248.00;;;;5115376;28;20228;-76
2021/12/26 10:32:08;;;;;;;1.97;1.87;;;7.10;91.70;6.50;97248.00;;;;5115353;28;20239;-76
2021/12/26 10:34:40;;;;;;;2.00;1.90;;;7.20;91.20;6.50;97245.00;;;;5115435;28;20221;-75
2021/12/26 10:37:10;;;;;;;1.60;1.50;;;7.20;91.30;6.60;97239.00;;;;5115643;28;20303;-75
2021/12/26 10:39:41;;;;;;;2.17;2.07;;;7.20;90.90;6.50;97240.00;;;;5115518;28;20227;-75
2021/12/26 10:42:16;;;;;;;2.30;2.10;;;7.20;90.80;6.50;97240.00;;;;5115385;28;20620;-74
2021/12/26 10:44:46;;;;;;;1.87;1.77;;;7.20;91.00;6.50;97247.00;;;;5115383;28;20280;-72
2021/12/26 10:47:16;;;;;;;1.13;1.13;;;7.20;90.70;6.50;97244.00;;;;5115261;28;20567;-79
2021/12/26 10:49:48;;;;;;;1.43;1.37;;;7.20;91.60;6.40;97248.00;;;;5115177;28;20792;-77
2021/12/26 10:52:24;;;;;;;1.97;1.87;;;7.10;90.90;6.40;97245.00;;;;5115128;28;20266;-75
2021/12/26 10:54:57;;;;;;;2.10;2.00;;;7.10;91.30;6.30;97245.00;;;;5115229;28;20326;-75
2021/12/26 10:57:30;;;;;;;2.63;2.43;;;7.10;91.40;6.40;97247.00;;;;5097268;28;20257;-75
2021/12/26 11:00:06;;;;;;;2.27;2.17;;;7.00;91.80;6.40;97227.00;;;;5115237;28;20198;-73
2021/12/26 11:02:35;;;;;;;1.87;1.77;;;7.10;91.90;6.40;97237.00;;;;5115312;28;20277;-76
2021/12/26 11:05:07;;;;;;;2.23;2.07;;;7.10;91.80;6.40;97242.00;;;;5115284;28;20270;-74
2021/12/26 11:07:52;;;;;;;1.30;1.27;;;7.10;92.00;6.40;97237.00;;;;5115039;28;20490;-75
2021/12/26 11:10:26;;;;;;;1.77;1.67;;;7.10;92.40;6.50;97231.00;;;;5114924;28;20307;-74
2021/12/26 11:12:57;;;;;;;2.27;2.13;;;7.20;92.80;6.60;97240.00;;;;5114860;28;20281;-73
2021/12/26 11:15:28;;;;;;;2.00;1.90;;;7.30;92.40;6.60;97231.00;;;;5114895;28;20226;-74
2021/12/26 11:17:58;;;;;;;1.50;1.43;;;7.30;92.50;6.80;97230.00;;;;5114768;28;20392;-72
2021/12/26 11:20:33;;;;;;;1.80;1.70;;;7.40;92.80;7.00;97220.00;;;;5114788;28;20197;-74